createdAt,value
2023-03-10T00:00:03.249Z,935.27
2023-03-10T00:01:03.268Z,935.27
2023-03-10T00:02:03.290Z,935.25
2023-03-10T00:03:03.308Z,935.27
2023-03-10T00:04:03.420Z,935.26
2023-03-10T00:05:03.325Z,935.27
2023-03-10T00:06:03.411Z,935.27
2023-03-10T00:07:03.371Z,935.27
2023-03-10T00:08:03.411Z,935.23
2023-03-10T00:09:03.418Z,935.18
2023-03-10T00:10:03.408Z,935.19
2023-03-10T00:11:03.427Z,935.13
2023-03-10T00:12:03.443Z,935.14
2023-03-10T00:13:03.474Z,935.10
2023-03-10T00:14:03.477Z,935.11
2023-03-10T00:15:03.522Z,935.09
2023-03-10T00:16:03.589Z,935.07
2023-03-10T00:17:03.533Z,935.05
2023-03-10T00:18:03.547Z,935.07
2023-03-10T00:19:03.565Z,935.07
2023-03-10T00:20:03.580Z,935.09
2023-03-10T00:21:03.593Z,935.13
2023-03-10T00:22:03.626Z,935.13
2023-03-10T00:23:03.626Z,935.16
2023-03-10T00:24:03.647Z,935.15
2023-03-10T00:25:03.676Z,935.17
2023-03-10T00:26:03.683Z,935.16
2023-03-10T00:27:03.696Z,935.16
2023-03-10T00:28:03.713Z,935.18
2023-03-10T00:29:03.749Z,935.19
2023-03-10T00:30:03.749Z,935.17
2023-03-10T00:31:03.812Z,935.16
2023-03-10T00:32:03.774Z,935.12
2023-03-10T00:33:03.791Z,935.12
2023-03-10T00:34:03.815Z,935.14
2023-03-10T00:35:03.824Z,935.11
2023-03-10T00:36:03.874Z,935.14
2023-03-10T00:37:03.860Z,935.07
2023-03-10T00:38:03.881Z,935.08
2023-03-10T00:39:03.891Z,935.07
2023-03-10T00:40:03.915Z,935.05
2023-03-10T00:41:03.925Z,935.12
2023-03-10T00:42:03.940Z,935.09
2023-03-10T00:43:03.969Z,935.14
2023-03-10T00:44:03.980Z,935.16
2023-03-10T00:45:03.991Z,935.17
2023-03-10T00:46:04.054Z,935.15
2023-03-10T00:47:04.046Z,935.13
2023-03-10T00:48:04.042Z,935.08
2023-03-10T00:49:04.057Z,935.11
2023-03-10T00:50:04.077Z,935.07
2023-03-10T00:51:04.097Z,935.06
2023-03-10T00:52:04.114Z,935.10
2023-03-10T00:53:04.131Z,935.08
2023-03-10T00:54:04.143Z,935.10
2023-03-10T00:55:04.164Z,935.04
2023-03-10T00:56:04.178Z,935.02
2023-03-10T00:57:04.206Z,935.04
2023-03-10T00:58:04.208Z,934.98
2023-03-10T00:59:04.230Z,934.97
2023-03-10T01:00:04.255Z,934.93
2023-03-10T01:01:04.265Z,934.88
2023-03-10T01:02:04.358Z,934.85
2023-03-10T01:03:04.307Z,934.84
2023-03-10T01:04:04.385Z,934.84
2023-03-10T01:05:04.333Z,934.84
2023-03-10T01:06:04.346Z,934.81
2023-03-10T01:07:04.362Z,934.78
2023-03-10T01:08:04.370Z,934.76
2023-03-10T01:09:04.396Z,934.78
2023-03-10T01:10:04.410Z,934.79
2023-03-10T01:11:04.421Z,934.80
2023-03-10T01:12:04.445Z,934.82
2023-03-10T01:13:04.452Z,934.86
2023-03-10T01:14:04.488Z,934.88
2023-03-10T01:15:04.488Z,934.86
2023-03-10T01:16:04.520Z,934.89
2023-03-10T01:17:04.525Z,934.91
2023-03-10T01:18:04.572Z,934.89
2023-03-10T01:19:04.579Z,934.87
2023-03-10T01:20:04.586Z,934.89
2023-03-10T01:21:04.593Z,934.88
2023-03-10T01:22:04.606Z,934.87
2023-03-10T01:23:04.618Z,934.87
2023-03-10T01:24:04.640Z,934.90
2023-03-10T01:25:04.650Z,934.92
2023-03-10T01:26:04.706Z,934.90
2023-03-10T01:27:04.690Z,934.94
2023-03-10T01:28:04.706Z,934.95
2023-03-10T01:29:04.715Z,934.89
2023-03-10T01:30:04.743Z,934.92
2023-03-10T01:31:04.784Z,934.91
2023-03-10T01:32:04.774Z,934.91
2023-03-10T01:33:04.782Z,934.89
2023-03-10T01:34:04.810Z,934.88
2023-03-10T01:35:04.934Z,934.88
2023-03-10T01:36:04.880Z,934.90
2023-03-10T01:37:04.854Z,934.89
2023-03-10T01:38:04.868Z,934.87
2023-03-10T01:39:04.890Z,934.87
2023-03-10T01:40:04.899Z,934.86
2023-03-10T01:41:04.917Z,934.84
2023-03-10T01:42:04.933Z,934.85
2023-03-10T01:43:04.956Z,934.82
2023-03-10T01:44:04.980Z,934.84
2023-03-10T01:45:04.979Z,934.87
2023-03-10T01:46:04.991Z,934.85
2023-03-10T01:47:05.019Z,934.85
2023-03-10T01:48:05.025Z,934.84
2023-03-10T01:49:05.048Z,934.83
2023-03-10T01:50:05.089Z,934.83
2023-03-10T01:51:05.119Z,934.86
2023-03-10T01:52:05.119Z,934.85
2023-03-10T01:53:05.120Z,934.80
2023-03-10T01:54:05.146Z,934.85
2023-03-10T01:55:05.142Z,934.81
2023-03-10T01:56:05.180Z,934.78
2023-03-10T01:57:05.191Z,934.84
2023-03-10T01:58:05.209Z,934.81
2023-03-10T01:59:05.217Z,934.87
2023-03-10T02:00:05.258Z,934.93
2023-03-10T02:01:05.305Z,934.89
2023-03-10T02:02:05.341Z,934.92
2023-03-10T02:03:05.266Z,934.90
2023-03-10T02:04:05.290Z,934.91
2023-03-10T02:05:05.301Z,934.92
2023-03-10T02:06:05.314Z,934.96
2023-03-10T02:07:05.359Z,934.97
2023-03-10T02:08:05.561Z,934.98
2023-03-10T02:09:05.365Z,934.99
2023-03-10T02:10:05.380Z,935.04
2023-03-10T02:11:05.403Z,935.05
2023-03-10T02:12:05.415Z,935.08
2023-03-10T02:13:05.431Z,935.11
2023-03-10T02:14:05.458Z,935.07
2023-03-10T02:15:05.466Z,935.11
2023-03-10T02:16:05.623Z,935.11
2023-03-10T02:17:05.500Z,935.10
2023-03-10T02:18:05.607Z,935.13
2023-03-10T02:19:05.539Z,935.10
2023-03-10T02:20:05.556Z,935.12
2023-03-10T02:21:05.573Z,935.10
2023-03-10T02:22:05.586Z,935.14
2023-03-10T02:23:05.618Z,935.16
2023-03-10T02:24:05.621Z,935.14
2023-03-10T02:25:05.630Z,935.13
2023-03-10T02:26:05.646Z,935.13
2023-03-10T02:27:05.675Z,935.10
2023-03-10T02:28:05.695Z,935.09
2023-03-10T02:29:05.705Z,935.11
2023-03-10T02:30:05.712Z,935.08
2023-03-10T02:31:05.730Z,935.12
2023-03-10T02:32:05.747Z,935.10
2023-03-10T02:33:05.774Z,935.11
2023-03-10T02:34:05.778Z,935.14
2023-03-10T02:35:05.802Z,935.12
2023-03-10T02:36:05.870Z,935.10
2023-03-10T02:37:05.839Z,935.12
2023-03-10T02:38:05.855Z,935.18
2023-03-10T02:39:05.941Z,935.17
2023-03-10T02:40:05.894Z,935.13
2023-03-10T02:41:05.902Z,935.12
2023-03-10T02:42:05.916Z,935.15
2023-03-10T02:43:05.937Z,935.13
2023-03-10T02:44:05.949Z,935.16
2023-03-10T02:45:05.970Z,935.18
2023-03-10T02:46:06.044Z,935.16
2023-03-10T02:47:05.990Z,935.15
2023-03-10T02:48:06.014Z,935.18
2023-03-10T02:49:06.032Z,935.20
2023-03-10T02:50:06.044Z,935.21
2023-03-10T02:51:06.055Z,935.24
2023-03-10T02:52:06.078Z,935.21
2023-03-10T02:53:06.086Z,935.21
2023-03-10T02:54:06.105Z,935.18
2023-03-10T02:55:06.151Z,935.21
2023-03-10T02:56:06.144Z,935.20
2023-03-10T02:57:06.163Z,935.21
2023-03-10T02:58:06.174Z,935.22
2023-03-10T02:59:06.189Z,935.19
2023-03-10T03:00:06.210Z,935.20
2023-03-10T03:01:06.256Z,935.18
2023-03-10T03:02:06.238Z,935.20
2023-03-10T03:03:06.257Z,935.18
2023-03-10T03:04:06.333Z,935.19
2023-03-10T03:05:06.284Z,935.20
2023-03-10T03:06:06.301Z,935.17
2023-03-10T03:07:06.314Z,935.18
2023-03-10T03:08:06.337Z,935.21
2023-03-10T03:09:06.349Z,935.19
2023-03-10T03:10:06.372Z,935.18
2023-03-10T03:11:06.397Z,935.23
2023-03-10T03:12:06.409Z,935.23
2023-03-10T03:13:06.420Z,935.21
2023-03-10T03:14:06.433Z,935.24
2023-03-10T03:15:06.452Z,935.27
2023-03-10T03:16:06.459Z,935.26
2023-03-10T03:17:06.525Z,935.24
2023-03-10T03:18:06.504Z,935.24
2023-03-10T03:19:06.517Z,935.25
2023-03-10T03:20:06.525Z,935.24
2023-03-10T03:21:06.551Z,935.23
2023-03-10T03:22:06.555Z,935.22
2023-03-10T03:23:06.580Z,935.18
2023-03-10T03:24:06.597Z,935.18
2023-03-10T03:25:06.625Z,935.21
2023-03-10T03:26:06.628Z,935.24
2023-03-10T03:27:06.661Z,935.24
2023-03-10T03:28:06.653Z,935.26
2023-03-10T03:29:06.687Z,935.25
2023-03-10T03:30:06.686Z,935.24
2023-03-10T03:31:06.708Z,935.28
2023-03-10T03:32:06.800Z,935.24
2023-03-10T03:33:06.739Z,935.22
2023-03-10T03:34:06.757Z,935.24
2023-03-10T03:35:06.775Z,935.24
2023-03-10T03:36:06.821Z,935.22
2023-03-10T03:37:06.804Z,935.24
2023-03-10T03:38:06.824Z,935.24
2023-03-10T03:39:06.829Z,935.23
2023-03-10T03:40:06.848Z,935.23
2023-03-10T03:41:06.862Z,935.22
2023-03-10T03:42:06.886Z,935.18
2023-03-10T03:43:06.920Z,935.21
2023-03-10T03:44:06.923Z,935.18
2023-03-10T03:45:06.937Z,935.22
2023-03-10T03:46:06.960Z,935.21
2023-03-10T03:47:06.968Z,935.19
2023-03-10T03:48:06.989Z,935.17
2023-03-10T03:49:06.993Z,935.15
2023-03-10T03:50:07.011Z,935.16
2023-03-10T03:51:07.024Z,935.15
2023-03-10T03:52:07.056Z,935.19
2023-03-10T03:53:07.067Z,935.14
2023-03-10T03:54:07.075Z,935.14
2023-03-10T03:55:07.102Z,935.15
2023-03-10T03:56:07.113Z,935.16
2023-03-10T03:57:07.141Z,935.12
2023-03-10T03:58:07.139Z,935.10
2023-03-10T03:59:07.257Z,935.14
2023-03-10T04:00:07.171Z,935.16
2023-03-10T04:01:07.190Z,935.14
2023-03-10T04:02:07.217Z,935.18
2023-03-10T04:03:07.241Z,935.19
2023-03-10T04:04:07.243Z,935.19
2023-03-10T04:05:07.255Z,935.14
2023-03-10T04:06:07.269Z,935.16
2023-03-10T04:07:07.297Z,935.16
2023-03-10T04:08:07.303Z,935.16
2023-03-10T04:09:07.326Z,935.17
2023-03-10T04:10:07.333Z,935.18
2023-03-10T04:11:07.364Z,935.16
2023-03-10T04:12:07.374Z,935.16
2023-03-10T04:13:07.391Z,935.15
2023-03-10T04:14:07.398Z,935.12
2023-03-10T04:15:07.441Z,935.12
2023-03-10T04:16:07.481Z,935.05
2023-03-10T04:17:07.456Z,935.05
2023-03-10T04:18:07.464Z,935.04
2023-03-10T04:19:07.616Z,935.04
2023-03-10T04:20:08.451Z,935.04
2023-03-10T04:21:07.523Z,935.02
2023-03-10T04:22:07.528Z,935.02
2023-03-10T04:23:07.551Z,935.02
2023-03-10T04:24:07.569Z,935.00
2023-03-10T04:25:07.587Z,934.98
2023-03-10T04:26:07.604Z,934.97
2023-03-10T04:27:07.618Z,934.97
2023-03-10T04:28:07.626Z,934.98
2023-03-10T04:29:07.703Z,935.01
2023-03-10T04:30:07.659Z,935.01
2023-03-10T04:31:07.750Z,935.00
2023-03-10T04:32:07.699Z,934.99
2023-03-10T04:33:07.709Z,934.97
2023-03-10T04:34:07.727Z,934.92
2023-03-10T04:35:07.777Z,934.91
2023-03-10T04:36:07.804Z,934.89
2023-03-10T04:37:07.781Z,934.85
2023-03-10T04:38:07.794Z,934.88
2023-03-10T04:39:07.808Z,934.90
2023-03-10T04:40:07.829Z,934.87
2023-03-10T04:41:07.840Z,934.86
2023-03-10T04:42:07.868Z,934.84
2023-03-10T04:43:07.878Z,934.81
2023-03-10T04:44:09.508Z,934.79
2023-03-10T04:45:07.904Z,934.75
2023-03-10T04:46:07.934Z,934.72
2023-03-10T04:47:07.977Z,934.67
2023-03-10T04:48:07.952Z,934.71
2023-03-10T04:49:07.979Z,934.68
2023-03-10T04:50:07.993Z,934.65
2023-03-10T04:51:08.010Z,934.66
2023-03-10T04:52:08.028Z,934.65
2023-03-10T04:53:08.034Z,934.64
2023-03-10T04:54:08.062Z,934.64
2023-03-10T04:55:08.073Z,934.64
2023-03-10T04:56:08.095Z,934.64
2023-03-10T04:57:08.098Z,934.66
2023-03-10T04:58:08.122Z,934.62
2023-03-10T04:59:08.137Z,934.62
2023-03-10T05:00:08.314Z,934.66
2023-03-10T05:01:08.297Z,934.60
2023-03-10T05:02:08.248Z,934.59
2023-03-10T05:03:08.210Z,934.60
2023-03-10T05:04:08.305Z,934.64
2023-03-10T05:05:08.234Z,934.60
2023-03-10T05:06:08.248Z,934.60
2023-03-10T05:07:08.256Z,934.56
2023-03-10T05:08:08.280Z,934.54
2023-03-10T05:09:08.296Z,934.52
2023-03-10T05:10:08.309Z,934.50
2023-03-10T05:11:08.328Z,934.44
2023-03-10T05:12:08.343Z,934.43
2023-03-10T05:13:08.359Z,934.41
2023-03-10T05:14:08.374Z,934.42
2023-03-10T05:15:08.393Z,934.39
2023-03-10T05:16:08.413Z,934.39
2023-03-10T05:17:08.417Z,934.38
2023-03-10T05:18:08.430Z,934.37
2023-03-10T05:19:08.469Z,934.40
2023-03-10T05:20:08.463Z,934.45
2023-03-10T05:21:08.478Z,934.44
2023-03-10T05:22:08.498Z,934.48
2023-03-10T05:23:08.517Z,934.48
2023-03-10T05:24:08.534Z,934.48
2023-03-10T05:25:08.544Z,934.52
2023-03-10T05:26:08.559Z,934.50
2023-03-10T05:27:08.584Z,934.52
2023-03-10T05:28:08.599Z,934.52
2023-03-10T05:29:08.608Z,934.54
2023-03-10T05:30:08.632Z,934.51
2023-03-10T05:31:08.792Z,934.48
2023-03-10T05:32:08.663Z,934.49
2023-03-10T05:33:08.683Z,934.47
2023-03-10T05:34:08.685Z,934.49
2023-03-10T05:35:08.850Z,934.45
2023-03-10T05:36:08.841Z,934.45
2023-03-10T05:37:08.749Z,934.46
2023-03-10T05:38:08.752Z,934.49
2023-03-10T05:39:08.777Z,934.46
2023-03-10T05:40:08.785Z,934.47
2023-03-10T05:41:08.805Z,934.40
2023-03-10T05:42:08.828Z,934.42
2023-03-10T05:43:08.837Z,934.40
2023-03-10T05:44:08.851Z,934.34
2023-03-10T05:45:08.874Z,934.29
2023-03-10T05:46:08.891Z,934.28
2023-03-10T05:47:08.907Z,934.25
2023-03-10T05:48:08.923Z,934.25
2023-03-10T05:49:08.940Z,934.24
2023-03-10T05:50:08.950Z,934.29
2023-03-10T05:51:09.030Z,934.33
2023-03-10T05:52:08.980Z,934.35
2023-03-10T05:53:08.996Z,934.35
2023-03-10T05:54:09.012Z,934.36
2023-03-10T05:55:09.034Z,934.34
2023-03-10T05:56:09.052Z,934.37
2023-03-10T05:57:09.060Z,934.41
2023-03-10T05:58:09.075Z,934.39
2023-03-10T05:59:09.101Z,934.38
2023-03-10T06:00:09.116Z,934.39
2023-03-10T06:01:09.134Z,934.37
2023-03-10T06:02:09.154Z,934.41
2023-03-10T06:03:09.192Z,934.42
2023-03-10T06:04:09.222Z,934.44
2023-03-10T06:05:11.316Z,934.43
2023-03-10T06:06:09.224Z,934.39
2023-03-10T06:07:09.257Z,934.42
2023-03-10T06:08:09.244Z,934.39
2023-03-10T06:09:09.254Z,934.38
2023-03-10T06:10:09.267Z,934.30
2023-03-10T06:11:09.285Z,934.36
2023-03-10T06:12:09.308Z,934.27
2023-03-10T06:13:09.326Z,934.28
2023-03-10T06:14:09.342Z,934.26
2023-03-10T06:15:09.358Z,934.22
2023-03-10T06:16:09.380Z,934.20
2023-03-10T06:17:09.381Z,934.19
2023-03-10T06:18:09.403Z,934.15
2023-03-10T06:19:09.422Z,934.16
2023-03-10T06:20:09.433Z,934.11
2023-03-10T06:21:09.447Z,934.12
2023-03-10T06:22:09.461Z,934.11
2023-03-10T06:23:09.536Z,934.09
2023-03-10T06:24:09.493Z,934.09
2023-03-10T06:25:09.517Z,934.12
2023-03-10T06:26:09.534Z,934.15
2023-03-10T06:27:09.541Z,934.13
2023-03-10T06:28:09.815Z,934.08
2023-03-10T06:29:09.584Z,934.11
2023-03-10T06:30:09.607Z,934.12
2023-03-10T06:31:09.620Z,934.09
2023-03-10T06:32:09.838Z,934.08
2023-03-10T06:33:09.842Z,934.01
2023-03-10T06:34:09.666Z,934.04
2023-03-10T06:35:09.680Z,934.08
2023-03-10T06:36:09.745Z,934.12
2023-03-10T06:37:09.736Z,934.10
2023-03-10T06:38:09.729Z,934.13
2023-03-10T06:39:09.763Z,934.13
2023-03-10T06:40:09.762Z,934.12
2023-03-10T06:41:09.794Z,934.11
2023-03-10T06:42:09.786Z,934.07
2023-03-10T06:43:09.804Z,934.13
2023-03-10T06:44:09.826Z,934.09
2023-03-10T06:45:09.852Z,934.08
2023-03-10T06:46:09.907Z,934.04
2023-03-10T06:47:09.869Z,934.07
2023-03-10T06:48:09.902Z,934.05
2023-03-10T06:49:09.901Z,934.07
2023-03-10T06:50:09.919Z,934.07
2023-03-10T06:51:09.940Z,934.09
2023-03-10T06:52:09.956Z,934.06
2023-03-10T06:53:09.974Z,934.05
2023-03-10T06:54:09.987Z,934.09
2023-03-10T06:55:10.019Z,934.10
2023-03-10T06:56:10.037Z,934.11
2023-03-10T06:57:10.040Z,934.04
2023-03-10T06:58:10.055Z,934.04
2023-03-10T06:59:10.071Z,934.03
2023-03-10T07:00:10.076Z,934.04
2023-03-10T07:01:10.185Z,934.03
2023-03-10T07:02:10.116Z,934.02
2023-03-10T07:03:10.123Z,934.02
2023-03-10T07:04:10.139Z,934.07
2023-03-10T07:05:10.237Z,934.05
2023-03-10T07:06:10.176Z,934.07
2023-03-10T07:07:10.184Z,934.01
2023-03-10T07:08:10.217Z,934.02
2023-03-10T07:09:10.220Z,934.01
2023-03-10T07:10:10.231Z,934.05
2023-03-10T07:11:10.272Z,934.01
2023-03-10T07:12:10.264Z,934.04
2023-03-10T07:13:10.280Z,934.00
2023-03-10T07:14:10.303Z,933.99
2023-03-10T07:15:10.335Z,934.01
2023-03-10T07:16:10.334Z,934.01
2023-03-10T07:17:10.379Z,934.03
2023-03-10T07:18:10.365Z,934.02
2023-03-10T07:19:10.388Z,933.95
2023-03-10T07:20:10.389Z,933.96
2023-03-10T07:21:10.409Z,933.92
2023-03-10T07:22:11.449Z,933.88
2023-03-10T07:23:10.438Z,933.88
2023-03-10T07:24:10.456Z,933.88
2023-03-10T07:25:10.478Z,933.88
2023-03-10T07:26:10.504Z,933.90
2023-03-10T07:27:10.518Z,933.87
2023-03-10T07:28:10.522Z,933.85
2023-03-10T07:29:10.536Z,933.87
2023-03-10T07:30:10.576Z,933.88
2023-03-10T07:31:10.656Z,933.88
2023-03-10T07:32:10.613Z,933.89
2023-03-10T07:33:10.607Z,933.88
2023-03-10T07:34:10.620Z,933.86
2023-03-10T07:35:10.631Z,933.85
2023-03-10T07:36:10.704Z,933.88
2023-03-10T07:37:10.672Z,933.88
2023-03-10T07:38:10.683Z,933.95
2023-03-10T07:39:10.693Z,933.96
2023-03-10T07:40:10.711Z,933.95
2023-03-10T07:41:10.736Z,933.91
2023-03-10T07:42:10.749Z,933.95
2023-03-10T07:43:10.780Z,933.91
2023-03-10T07:44:10.782Z,933.91
2023-03-10T07:45:10.792Z,933.91
2023-03-10T07:46:10.882Z,933.92
2023-03-10T07:47:10.855Z,933.93
2023-03-10T07:48:10.843Z,933.93
2023-03-10T07:49:10.865Z,934.01
2023-03-10T07:50:10.881Z,934.00
2023-03-10T07:51:10.893Z,934.00
2023-03-10T07:52:10.904Z,933.96
2023-03-10T07:53:10.928Z,933.95
2023-03-10T07:54:10.932Z,933.97
2023-03-10T07:55:10.957Z,933.88
2023-03-10T07:56:10.977Z,933.92
2023-03-10T07:57:10.990Z,933.90
2023-03-10T07:58:11.004Z,933.87
2023-03-10T07:59:11.047Z,933.89
2023-03-10T08:00:11.034Z,933.86
2023-03-10T08:01:11.053Z,933.86
2023-03-10T08:02:11.069Z,933.88
2023-03-10T08:03:11.084Z,933.88
2023-03-10T08:04:11.358Z,933.90
2023-03-10T08:05:11.233Z,933.89
2023-03-10T08:06:11.132Z,933.97
2023-03-10T08:07:11.142Z,933.94
2023-03-10T08:08:11.157Z,933.93
2023-03-10T08:09:11.180Z,933.96
2023-03-10T08:10:11.198Z,933.96
2023-03-10T08:11:11.204Z,933.95
2023-03-10T08:12:11.221Z,933.97
2023-03-10T08:13:11.366Z,933.98
2023-03-10T08:14:11.257Z,933.97
2023-03-10T08:15:11.348Z,933.96
2023-03-10T08:16:11.361Z,933.97
2023-03-10T08:17:11.302Z,933.95
2023-03-10T08:18:11.323Z,933.97
2023-03-10T08:19:11.337Z,933.95
2023-03-10T08:20:11.360Z,933.97
2023-03-10T08:21:11.379Z,933.99
2023-03-10T08:22:11.403Z,934.04
2023-03-10T08:23:11.404Z,934.06
2023-03-10T08:24:11.415Z,934.07
2023-03-10T08:25:11.430Z,934.10
2023-03-10T08:26:11.452Z,934.10
2023-03-10T08:27:11.470Z,934.11
2023-03-10T08:28:11.478Z,934.13
2023-03-10T08:29:11.501Z,934.16
2023-03-10T08:30:11.518Z,934.14
2023-03-10T08:31:11.612Z,934.15
2023-03-10T08:32:11.587Z,934.15
2023-03-10T08:33:11.555Z,934.14
2023-03-10T08:34:11.590Z,934.19
2023-03-10T08:35:11.592Z,934.22
2023-03-10T08:36:11.816Z,934.20
2023-03-10T08:37:11.633Z,934.24
2023-03-10T08:38:11.638Z,934.28
2023-03-10T08:39:11.655Z,934.29
2023-03-10T08:40:11.672Z,934.31
2023-03-10T08:41:11.695Z,934.32
2023-03-10T08:42:11.709Z,934.35
2023-03-10T08:43:11.719Z,934.32
2023-03-10T08:44:11.754Z,934.36
2023-03-10T08:45:11.753Z,934.33
2023-03-10T08:46:11.820Z,934.37
2023-03-10T08:47:11.972Z,934.33
2023-03-10T08:48:11.815Z,934.38
2023-03-10T08:49:11.820Z,934.36
2023-03-10T08:50:11.829Z,934.33
2023-03-10T08:51:14.458Z,934.33
2023-03-10T08:52:11.875Z,934.29
2023-03-10T08:53:11.880Z,934.31
2023-03-10T08:54:11.902Z,934.33
2023-03-10T08:55:11.926Z,934.32
2023-03-10T08:56:11.926Z,934.32
2023-03-10T08:57:11.950Z,934.35
2023-03-10T08:58:11.965Z,934.38
2023-03-10T08:59:11.997Z,934.36
2023-03-10T09:00:11.991Z,934.39
2023-03-10T09:01:12.008Z,934.43
2023-03-10T09:02:12.080Z,934.40
2023-03-10T09:03:15.041Z,934.39
2023-03-10T09:04:12.069Z,934.42
2023-03-10T09:05:12.082Z,934.42
2023-03-10T09:06:12.125Z,934.44
2023-03-10T09:07:12.113Z,934.41
2023-03-10T09:08:12.117Z,934.41
2023-03-10T09:09:12.143Z,934.41
2023-03-10T09:10:12.151Z,934.44
2023-03-10T09:11:12.168Z,934.44
2023-03-10T09:12:12.187Z,934.49
2023-03-10T09:13:14.364Z,934.47
2023-03-10T09:14:12.225Z,934.44
2023-03-10T09:15:12.243Z,934.44
2023-03-10T09:16:12.297Z,934.47
2023-03-10T09:17:12.266Z,934.45
2023-03-10T09:18:12.288Z,934.49
2023-03-10T09:19:12.328Z,934.49
2023-03-10T09:20:12.359Z,934.51
2023-03-10T09:21:12.330Z,934.54
2023-03-10T09:22:12.336Z,934.54
2023-03-10T09:23:12.361Z,934.56
2023-03-10T09:24:12.373Z,934.60
2023-03-10T09:25:12.388Z,934.61
2023-03-10T09:26:12.410Z,934.62
2023-03-10T09:27:12.416Z,934.55
2023-03-10T09:28:12.434Z,934.58
2023-03-10T09:29:12.468Z,934.59
2023-03-10T09:30:12.501Z,934.61
2023-03-10T09:31:14.651Z,934.59
2023-03-10T09:32:12.840Z,934.63
2023-03-10T09:33:12.512Z,934.63
2023-03-10T09:34:12.527Z,934.62
2023-03-10T09:35:12.575Z,934.65
2023-03-10T09:36:12.613Z,934.64
2023-03-10T09:37:12.577Z,934.66
2023-03-10T09:38:12.598Z,934.66
2023-03-10T09:39:12.810Z,934.65
2023-03-10T09:40:12.676Z,934.62
2023-03-10T09:41:12.658Z,934.65
2023-03-10T09:42:13.334Z,934.68
2023-03-10T09:43:12.672Z,934.72
2023-03-10T09:44:12.688Z,934.72
2023-03-10T09:45:12.708Z,934.74
2023-03-10T09:46:12.795Z,934.75
2023-03-10T09:47:12.742Z,934.70
2023-03-10T09:48:12.752Z,934.70
2023-03-10T09:49:12.775Z,934.71
2023-03-10T09:50:12.794Z,934.70
2023-03-10T09:51:12.818Z,934.73
2023-03-10T09:52:12.823Z,934.70
2023-03-10T09:53:12.825Z,934.71
2023-03-10T09:54:12.839Z,934.71
2023-03-10T09:55:13.284Z,934.74
2023-03-10T09:56:12.873Z,934.75
2023-03-10T09:57:12.887Z,934.79
2023-03-10T09:58:12.920Z,934.79
2023-03-10T09:59:12.929Z,934.81
2023-03-10T10:00:12.962Z,934.77
2023-03-10T10:01:12.953Z,934.78
2023-03-10T10:02:12.982Z,934.77
2023-03-10T10:03:13.053Z,934.78
2023-03-10T10:04:13.208Z,934.81
2023-03-10T10:05:14.123Z,934.81
2023-03-10T10:06:13.031Z,934.86
2023-03-10T10:07:13.089Z,934.86
2023-03-10T10:08:13.073Z,934.89
2023-03-10T10:09:13.086Z,934.88
2023-03-10T10:10:13.096Z,934.90
2023-03-10T10:11:13.117Z,934.87
2023-03-10T10:12:13.150Z,934.86
2023-03-10T10:13:13.145Z,934.83
2023-03-10T10:14:18.729Z,934.87
2023-03-10T10:15:13.172Z,934.89
2023-03-10T10:16:28.083Z,934.89
2023-03-10T10:17:13.293Z,934.89
2023-03-10T10:18:20.059Z,934.93
2023-03-10T10:19:13.263Z,934.95
2023-03-10T10:20:13.256Z,934.99
2023-03-10T10:21:13.263Z,934.91
2023-03-10T10:22:13.279Z,934.96
2023-03-10T10:23:13.314Z,934.98
2023-03-10T10:24:13.317Z,934.96
2023-03-10T10:25:13.370Z,934.97
2023-03-10T10:26:13.351Z,935.02
2023-03-10T10:27:13.372Z,935.02
2023-03-10T10:28:13.383Z,935.07
2023-03-10T10:29:13.392Z,935.07
2023-03-10T10:30:13.406Z,935.10
2023-03-10T10:31:13.612Z,935.10
2023-03-10T10:32:13.539Z,935.06
2023-03-10T10:33:13.474Z,935.08
2023-03-10T10:34:16.038Z,935.13
2023-03-10T10:35:13.483Z,935.12
2023-03-10T10:36:13.588Z,935.10
2023-03-10T10:37:15.966Z,935.12
2023-03-10T10:38:13.572Z,935.10
2023-03-10T10:39:13.682Z,935.11
2023-03-10T10:40:13.573Z,935.11
2023-03-10T10:41:13.590Z,935.13
2023-03-10T10:42:13.600Z,935.12
2023-03-10T10:43:13.620Z,935.15
2023-03-10T10:44:13.635Z,935.13
2023-03-10T10:45:13.652Z,935.13
2023-03-10T10:46:13.914Z,935.12
2023-03-10T10:47:13.686Z,935.16
2023-03-10T10:48:13.696Z,935.13
2023-03-10T10:49:13.718Z,935.11
2023-03-10T10:50:14.107Z,935.12
2023-03-10T10:51:13.745Z,935.09
2023-03-10T10:52:13.764Z,935.09
2023-03-10T10:53:13.784Z,935.09
2023-03-10T10:54:13.794Z,935.11
2023-03-10T10:55:13.836Z,935.10
2023-03-10T10:56:13.832Z,935.12
2023-03-10T10:57:14.040Z,935.11
2023-03-10T10:58:13.859Z,935.11
2023-03-10T10:59:13.876Z,935.14
2023-03-10T11:00:13.895Z,935.15
2023-03-10T11:01:13.938Z,935.14
2023-03-10T11:02:14.579Z,935.11
2023-03-10T11:03:13.933Z,935.14
2023-03-10T11:04:15.358Z,935.13
2023-03-10T11:05:13.971Z,935.13
2023-03-10T11:06:13.989Z,935.10
2023-03-10T11:07:13.995Z,935.14
2023-03-10T11:08:14.011Z,935.10
2023-03-10T11:09:14.031Z,935.12
2023-03-10T11:10:14.054Z,935.14
2023-03-10T11:11:14.091Z,935.15
2023-03-10T11:12:14.074Z,935.13
2023-03-10T11:13:14.094Z,935.16
2023-03-10T11:14:14.132Z,935.14
2023-03-10T11:15:14.137Z,935.16
2023-03-10T11:16:14.198Z,935.15
2023-03-10T11:17:14.162Z,935.12
2023-03-10T11:18:14.169Z,935.14
2023-03-10T11:19:14.188Z,935.17
2023-03-10T11:20:14.203Z,935.21
2023-03-10T11:21:14.225Z,935.17
2023-03-10T11:22:14.235Z,935.21
2023-03-10T11:23:14.253Z,935.19
2023-03-10T11:24:14.266Z,935.24
2023-03-10T11:25:14.284Z,935.20
2023-03-10T11:26:14.298Z,935.23
2023-03-10T11:27:14.343Z,935.24
2023-03-10T11:28:14.329Z,935.23
2023-03-10T11:29:14.382Z,935.24
2023-03-10T11:30:14.378Z,935.22
2023-03-10T11:31:14.480Z,935.22
2023-03-10T11:32:14.450Z,935.29
2023-03-10T11:33:14.433Z,935.29
2023-03-10T11:34:14.441Z,935.29
2023-03-10T11:35:14.440Z,935.27
2023-03-10T11:36:14.512Z,935.32
2023-03-10T11:37:14.471Z,935.31
2023-03-10T11:38:14.487Z,935.35
2023-03-10T11:39:14.542Z,935.34
2023-03-10T11:40:14.527Z,935.31
2023-03-10T11:41:14.543Z,935.31
2023-03-10T11:42:14.563Z,935.32
2023-03-10T11:43:14.601Z,935.32
2023-03-10T11:44:14.592Z,935.32
2023-03-10T11:45:14.609Z,935.35
2023-03-10T11:46:14.699Z,935.35
2023-03-10T11:47:15.038Z,935.33
2023-03-10T11:48:14.658Z,935.36
2023-03-10T11:49:14.666Z,935.33
2023-03-10T11:50:14.694Z,935.36
2023-03-10T11:51:14.694Z,935.37
2023-03-10T11:52:14.737Z,935.34
2023-03-10T11:53:14.736Z,935.35
2023-03-10T11:54:14.757Z,935.37
2023-03-10T11:55:15.368Z,935.35
2023-03-10T11:56:14.800Z,935.35
2023-03-10T11:57:14.798Z,935.36
2023-03-10T11:58:14.812Z,935.35
2023-03-10T11:59:14.852Z,935.36
2023-03-10T12:00:14.857Z,935.34
2023-03-10T12:01:14.860Z,935.36
2023-03-10T12:02:14.867Z,935.38
2023-03-10T12:03:14.924Z,935.39
2023-03-10T12:04:14.900Z,935.39
2023-03-10T12:05:14.944Z,935.44
2023-03-10T12:06:14.932Z,935.43
2023-03-10T12:07:14.946Z,935.40
2023-03-10T12:08:14.973Z,935.42
2023-03-10T12:09:14.984Z,935.38
2023-03-10T12:10:14.996Z,935.44
2023-03-10T12:11:15.017Z,935.39
2023-03-10T12:12:15.026Z,935.42
2023-03-10T12:13:15.045Z,935.42
2023-03-10T12:14:15.076Z,935.41
2023-03-10T12:15:15.109Z,935.44
2023-03-10T12:16:15.149Z,935.42
2023-03-10T12:17:15.116Z,935.38
2023-03-10T12:18:15.123Z,935.42
2023-03-10T12:19:15.144Z,935.41
2023-03-10T12:20:15.155Z,935.39
2023-03-10T12:21:15.181Z,935.43
2023-03-10T12:22:15.185Z,935.39
2023-03-10T12:23:15.215Z,935.40
2023-03-10T12:24:15.221Z,935.38
2023-03-10T12:25:15.241Z,935.43
2023-03-10T12:26:15.248Z,935.42
2023-03-10T12:27:15.282Z,935.43
2023-03-10T12:28:15.292Z,935.42